sensor_id;sensor_type;location;lat;lon;timestamp;P1;durP1;ratioP1;P2;durP2;ratioP2
75554;SDS011;66087;53.126;17.960;2023-04-01T00:00:59;48.70;;;20.60;;
75554;SDS011;66087;53.126;17.960;2023-04-01T00:03:27;46.60;;;19.00;;
75554;SDS011;66087;53.126;17.960;2023-04-01T00:05:55;42.90;;;16.70;;
75554;SDS011;66087;53.126;17.960;2023-04-01T00:08:24;39.90;;;15.60;;
75554;SDS011;66087;53.126;17.960;2023-04-01T00:10:52;28.80;;;13.90;;
75554;SDS011;66087;53.126;17.960;2023-04-01T00:13:20;28.70;;;13.90;;
75554;SDS011;66087;53.126;17.960;2023-04-01T00:15:48;21.80;;;12.00;;
75554;SDS011;66087;53.126;17.960;2023-04-01T00:18:16;30.00;;;15.20;;
75554;SDS011;66087;53.126;17.960;2023-04-01T00:20:43;26.40;;;14.00;;
75554;SDS011;66087;53.126;17.960;2023-04-01T00:23:12;24.70;;;12.30;;
75554;SDS011;66087;53.126;17.960;2023-04-01T00:25:39;26.30;;;12.90;;
75554;SDS011;66087;53.126;17.960;2023-04-01T00:28:06;26.80;;;12.80;;
75554;SDS011;66087;53.126;17.960;2023-04-01T00:30:33;25.30;;;11.60;;
75554;SDS011;66087;53.126;17.960;2023-04-01T00:33:00;24.40;;;11.30;;
75554;SDS011;66087;53.126;17.960;2023-04-01T00:35:26;22.60;;;10.80;;
75554;SDS011;66087;53.126;17.960;2023-04-01T00:37:53;20.90;;;10.90;;
75554;SDS011;66087;53.126;17.960;2023-04-01T00:40:23;18.70;;;9.60;;
75554;SDS011;66087;53.126;17.960;2023-04-01T00:42:54;18.00;;;9.30;;
75554;SDS011;66087;53.126;17.960;2023-04-01T00:45:24;20.60;;;11.10;;
75554;SDS011;66087;53.126;17.960;2023-04-01T00:48:02;18.50;;;9.90;;
75554;SDS011;66087;53.126;17.960;2023-04-01T00:50:34;20.80;;;9.60;;
75554;SDS011;66087;53.126;17.960;2023-04-01T00:53:03;17.60;;;9.20;;
75554;SDS011;66087;53.126;17.960;2023-04-01T00:55:34;17.50;;;8.20;;
75554;SDS011;66087;53.126;17.960;2023-04-01T00:58:05;17.90;;;9.00;;
75554;SDS011;66087;53.126;17.960;2023-04-01T01:00:35;17.00;;;8.80;;
75554;SDS011;66087;53.126;17.960;2023-04-01T01:03:02;16.50;;;8.40;;
75554;SDS011;66087;53.126;17.960;2023-04-01T01:05:33;18.50;;;9.60;;
75554;SDS011;66087;53.126;17.960;2023-04-01T01:08:14;18.50;;;8.90;;
75554;SDS011;66087;53.126;17.960;2023-04-01T01:10:56;20.80;;;9.70;;
75554;SDS011;66087;53.126;17.960;2023-04-01T01:13:26;17.10;;;9.40;;
75554;SDS011;66087;53.126;17.960;2023-04-01T01:16:04;18.50;;;9.10;;
75554;SDS011;66087;53.126;17.960;2023-04-01T01:18:42;18.20;;;9.30;;
75554;SDS011;66087;53.126;17.960;2023-04-01T01:21:45;16.20;;;8.50;;
75554;SDS011;66087;53.126;17.960;2023-04-01T01:24:22;20.10;;;10.80;;
75554;SDS011;66087;53.126;17.960;2023-04-01T01:27:04;21.20;;;11.70;;
75554;SDS011;66087;53.126;17.960;2023-04-01T01:29:38;22.90;;;12.40;;
75554;SDS011;66087;53.126;17.960;2023-04-01T01:32:28;19.10;;;9.90;;
75554;SDS011;66087;53.126;17.960;2023-04-01T01:35:16;23.00;;;12.20;;
75554;SDS011;66087;53.126;17.960;2023-04-01T01:37:50;19.10;;;10.60;;
75554;SDS011;66087;53.126;17.960;2023-04-01T01:40:21;18.50;;;10.30;;
75554;SDS011;66087;53.126;17.960;2023-04-01T01:42:51;17.60;;;9.70;;
75554;SDS011;66087;53.126;17.960;2023-04-01T01:45:23;16.00;;;8.70;;
75554;SDS011;66087;53.126;17.960;2023-04-01T01:47:52;19.30;;;9.80;;
75554;SDS011;66087;53.126;17.960;2023-04-01T01:50:22;17.70;;;10.40;;
75554;SDS011;66087;53.126;17.960;2023-04-01T01:52:59;20.70;;;10.60;;
75554;SDS011;66087;53.126;17.960;2023-04-01T01:55:30;14.90;;;8.70;;
75554;SDS011;66087;53.126;17.960;2023-04-01T01:58:02;16.90;;;9.70;;
75554;SDS011;66087;53.126;17.960;2023-04-01T02:00:35;14.50;;;7.90;;
75554;SDS011;66087;53.126;17.960;2023-04-01T02:03:03;18.20;;;9.30;;
75554;SDS011;66087;53.126;17.960;2023-04-01T02:05:31;16.00;;;8.60;;
75554;SDS011;66087;53.126;17.960;2023-04-01T02:08:06;19.30;;;9.40;;
75554;SDS011;66087;53.126;17.960;2023-04-01T02:10:43;14.50;;;7.20;;
75554;SDS011;66087;53.126;17.960;2023-04-01T02:13:19;17.70;;;8.30;;
75554;SDS011;66087;53.126;17.960;2023-04-01T02:15:54;14.30;;;7.60;;
75554;SDS011;66087;53.126;17.960;2023-04-01T02:18:25;11.40;;;6.50;;
75554;SDS011;66087;53.126;17.960;2023-04-01T02:20:52;14.80;;;9.60;;
75554;SDS011;66087;53.126;17.960;2023-04-01T02:23:19;16.20;;;9.10;;
75554;SDS011;66087;53.126;17.960;2023-04-01T02:25:46;16.40;;;9.20;;
75554;SDS011;66087;53.126;17.960;2023-04-01T02:28:14;15.90;;;8.50;;
75554;SDS011;66087;53.126;17.960;2023-04-01T02:30:44;12.70;;;6.80;;
75554;SDS011;66087;53.126;17.960;2023-04-01T02:33:11;13.20;;;7.10;;
75554;SDS011;66087;53.126;17.960;2023-04-01T02:35:38;11.10;;;6.30;;
75554;SDS011;66087;53.126;17.960;2023-04-01T02:38:07;11.10;;;6.30;;
75554;SDS011;66087;53.126;17.960;2023-04-01T02:43:14;10.50;;;5.20;;
75554;SDS011;66087;53.126;17.960;2023-04-01T02:45:42;10.10;;;5.10;;
75554;SDS011;66087;53.126;17.960;2023-04-01T02:48:10;11.00;;;5.50;;
75554;SDS011;66087;53.126;17.960;2023-04-01T02:50:36;12.00;;;6.10;;
75554;SDS011;66087;53.126;17.960;2023-04-01T02:53:03;9.20;;;4.60;;
75554;SDS011;66087;53.126;17.960;2023-04-01T02:55:33;11.60;;;6.60;;
75554;SDS011;66087;53.126;17.960;2023-04-01T02:58:00;12.00;;;5.70;;
75554;SDS011;66087;53.126;17.960;2023-04-01T03:00:27;12.10;;;6.20;;
75554;SDS011;66087;53.126;17.960;2023-04-01T03:02:55;12.50;;;6.30;;
75554;SDS011;66087;53.126;17.960;2023-04-01T03:05:23;10.50;;;5.70;;
75554;SDS011;66087;53.126;17.960;2023-04-01T03:07:50;12.00;;;6.20;;
75554;SDS011;66087;53.126;17.960;2023-04-01T03:10:17;10.30;;;5.40;;
75554;SDS011;66087;53.126;17.960;2023-04-01T03:12:43;12.10;;;5.80;;
75554;SDS011;66087;53.126;17.960;2023-04-01T03:15:11;10.50;;;5.00;;
75554;SDS011;66087;53.126;17.960;2023-04-01T03:17:41;12.00;;;5.60;;
75554;SDS011;66087;53.126;17.960;2023-04-01T03:20:08;9.50;;;4.70;;
75554;SDS011;66087;53.126;17.960;2023-04-01T03:22:37;13.30;;;5.60;;
75554;SDS011;66087;53.126;17.960;2023-04-01T03:25:05;9.40;;;4.10;;
75554;SDS011;66087;53.126;17.960;2023-04-01T03:27:34;12.20;;;6.20;;
75554;SDS011;66087;53.126;17.960;2023-04-01T03:30:03;11.30;;;5.10;;
75554;SDS011;66087;53.126;17.960;2023-04-01T03:32:31;10.20;;;4.70;;
75554;SDS011;66087;53.126;17.960;2023-04-01T03:34:58;9.40;;;4.20;;
75554;SDS011;66087;53.126;17.960;2023-04-01T03:37:25;8.60;;;3.90;;
75554;SDS011;66087;53.126;17.960;2023-04-01T03:39:52;10.40;;;4.50;;
75554;SDS011;66087;53.126;17.960;2023-04-01T03:42:19;12.10;;;4.90;;
75554;SDS011;66087;53.126;17.960;2023-04-01T03:44:45;9.50;;;5.10;;
75554;SDS011;66087;53.126;17.960;2023-04-01T03:47:12;11.60;;;5.40;;
75554;SDS011;66087;53.126;17.960;2023-04-01T03:49:39;14.00;;;6.90;;
75554;SDS011;66087;53.126;17.960;2023-04-01T03:52:08;9.30;;;3.90;;
75554;SDS011;66087;53.126;17.960;2023-04-01T03:54:36;11.60;;;5.30;;
75554;SDS011;66087;53.126;17.960;2023-04-01T03:57:03;10.70;;;4.60;;
75554;SDS011;66087;53.126;17.960;2023-04-01T03:59:30;8.70;;;3.60;;
75554;SDS011;66087;53.126;17.960;2023-04-01T04:01:57;9.40;;;3.80;;
75554;SDS011;66087;53.126;17.960;2023-04-01T04:04:23;9.90;;;4.00;;
75554;SDS011;66087;53.126;17.960;2023-04-01T04:06:50;6.40;;;2.40;;
75554;SDS011;66087;53.126;17.960;2023-04-01T04:09:18;10.90;;;4.90;;
75554;SDS011;66087;53.126;17.960;2023-04-01T04:11:44;10.00;;;3.80;;
75554;SDS011;66087;53.126;17.960;2023-04-01T04:14:11;12.90;;;5.50;;
75554;SDS011;66087;53.126;17.960;2023-04-01T04:16:38;11.60;;;4.70;;
75554;SDS011;66087;53.126;17.960;2023-04-01T04:19:05;10.00;;;3.60;;
75554;SDS011;66087;53.126;17.960;2023-04-01T04:21:32;11.90;;;4.70;;
75554;SDS011;66087;53.126;17.960;2023-04-01T04:23:59;13.40;;;5.40;;
75554;SDS011;66087;53.126;17.960;2023-04-01T04:26:27;12.40;;;5.20;;
75554;SDS011;66087;53.126;17.960;2023-04-01T04:28:58;10.00;;;4.20;;
75554;SDS011;66087;53.126;17.960;2023-04-01T04:31:25;7.50;;;2.90;;
75554;SDS011;66087;53.126;17.960;2023-04-01T04:33:54;7.90;;;2.80;;
75554;SDS011;66087;53.126;17.960;2023-04-01T04:36:21;7.80;;;3.00;;
75554;SDS011;66087;53.126;17.960;2023-04-01T04:38:49;8.90;;;3.60;;
75554;SDS011;66087;53.126;17.960;2023-04-01T04:41:16;12.50;;;5.80;;
75554;SDS011;66087;53.126;17.960;2023-04-01T04:43:49;13.30;;;4.80;;
75554;SDS011;66087;53.126;17.960;2023-04-01T04:46:19;11.50;;;4.90;;
75554;SDS011;66087;53.126;17.960;2023-04-01T04:48:47;11.50;;;4.50;;
75554;SDS011;66087;53.126;17.960;2023-04-01T04:51:16;9.90;;;4.10;;
75554;SDS011;66087;53.126;17.960;2023-04-01T04:53:43;11.60;;;4.80;;
75554;SDS011;66087;53.126;17.960;2023-04-01T04:56:11;11.20;;;4.80;;
75554;SDS011;66087;53.126;17.960;2023-04-01T04:58:44;13.00;;;5.70;;
75554;SDS011;66087;53.126;17.960;2023-04-01T05:01:15;11.10;;;4.80;;
75554;SDS011;66087;53.126;17.960;2023-04-01T05:03:44;9.30;;;4.10;;
75554;SDS011;66087;53.126;17.960;2023-04-01T05:06:12;13.00;;;5.20;;
75554;SDS011;66087;53.126;17.960;2023-04-01T05:08:40;15.50;;;6.70;;
75554;SDS011;66087;53.126;17.960;2023-04-01T05:11:10;11.20;;;4.50;;
75554;SDS011;66087;53.126;17.960;2023-04-01T05:13:41;13.70;;;5.90;;
75554;SDS011;66087;53.126;17.960;2023-04-01T05:16:09;17.00;;;7.10;;
75554;SDS011;66087;53.126;17.960;2023-04-01T05:18:37;18.30;;;7.10;;
75554;SDS011;66087;53.126;17.960;2023-04-01T05:21:06;14.90;;;6.10;;
75554;SDS011;66087;53.126;17.960;2023-04-01T05:23:34;13.00;;;5.60;;
75554;SDS011;66087;53.126;17.960;2023-04-01T05:26:02;17.10;;;7.10;;
75554;SDS011;66087;53.126;17.960;2023-04-01T05:28:32;14.80;;;5.70;;
75554;SDS011;66087;53.126;17.960;2023-04-01T05:31:01;18.20;;;8.60;;
75554;SDS011;66087;53.126;17.960;2023-04-01T05:33:34;16.10;;;6.90;;
75554;SDS011;66087;53.126;17.960;2023-04-01T05:36:09;15.00;;;6.90;;
75554;SDS011;66087;53.126;17.960;2023-04-01T05:38:38;12.20;;;5.20;;
75554;SDS011;66087;53.126;17.960;2023-04-01T05:41:06;12.70;;;5.00;;
75554;SDS011;66087;53.126;17.960;2023-04-01T05:43:37;17.00;;;7.40;;
75554;SDS011;66087;53.126;17.960;2023-04-01T05:46:23;18.40;;;7.40;;
75554;SDS011;66087;53.126;17.960;2023-04-01T05:48:55;14.20;;;6.10;;
75554;SDS011;66087;53.126;17.960;2023-04-01T05:51:23;15.30;;;6.20;;
75554;SDS011;66087;53.126;17.960;2023-04-01T05:53:49;14.80;;;6.30;;
75554;SDS011;66087;53.126;17.960;2023-04-01T05:56:16;15.10;;;5.90;;
75554;SDS011;66087;53.126;17.960;2023-04-01T05:58:50;16.00;;;6.70;;
75554;SDS011;66087;53.126;17.960;2023-04-01T06:01:19;14.10;;;5.30;;
75554;SDS011;66087;53.126;17.960;2023-04-01T06:03:46;15.20;;;6.80;;
75554;SDS011;66087;53.126;17.960;2023-04-01T06:06:14;10.70;;;4.20;;
75554;SDS011;66087;53.126;17.960;2023-04-01T06:08:42;17.60;;;6.50;;
75554;SDS011;66087;53.126;17.960;2023-04-01T06:11:14;15.80;;;7.10;;
75554;SDS011;66087;53.126;17.960;2023-04-01T06:22:38;15.50;;;6.50;;
75554;SDS011;66087;53.126;17.960;2023-04-01T06:28:09;12.00;;;5.70;;
75554;SDS011;66087;53.126;17.960;2023-04-01T06:30:59;17.90;;;7.50;;
75554;SDS011;66087;53.126;17.960;2023-04-01T06:36:35;12.20;;;5.70;;
75554;SDS011;66087;53.126;17.960;2023-04-01T06:39:18;30.50;;;17.80;;
75554;SDS011;66087;53.126;17.960;2023-04-01T06:42:19;20.60;;;11.60;;
75554;SDS011;66087;53.126;17.960;2023-04-01T06:45:00;12.00;;;5.50;;
75554;SDS011;66087;53.126;17.960;2023-04-01T06:51:16;11.50;;;5.60;;
75554;SDS011;66087;53.126;17.960;2023-04-01T06:54:03;11.90;;;6.10;;
75554;SDS011;66087;53.126;17.960;2023-04-01T06:56:45;12.90;;;6.00;;
75554;SDS011;66087;53.126;17.960;2023-04-01T06:59:25;11.70;;;6.10;;
75554;SDS011;66087;53.126;17.960;2023-04-01T07:02:04;11.40;;;5.50;;
75554;SDS011;66087;53.126;17.960;2023-04-01T07:04:44;8.60;;;4.10;;
75554;SDS011;66087;53.126;17.960;2023-04-01T07:10:06;8.20;;;3.70;;
75554;SDS011;66087;53.126;17.960;2023-04-01T07:13:00;12.60;;;5.10;;
75554;SDS011;66087;53.126;17.960;2023-04-01T07:15:43;7.10;;;3.00;;
75554;SDS011;66087;53.126;17.960;2023-04-01T07:18:25;10.40;;;5.00;;
75554;SDS011;66087;53.126;17.960;2023-04-01T07:20:58;10.40;;;5.00;;
75554;SDS011;66087;53.126;17.960;2023-04-01T07:23:31;12.50;;;5.40;;
75554;SDS011;66087;53.126;17.960;2023-04-01T07:28:58;11.90;;;4.90;;
75554;SDS011;66087;53.126;17.960;2023-04-01T07:31:47;9.60;;;4.40;;
75554;SDS011;66087;53.126;17.960;2023-04-01T07:34:27;11.80;;;5.50;;
75554;SDS011;66087;53.126;17.960;2023-04-01T07:37:05;10.90;;;5.20;;
75554;SDS011;66087;53.126;17.960;2023-04-01T07:39:43;9.50;;;4.30;;
75554;SDS011;66087;53.126;17.960;2023-04-01T07:42:38;9.90;;;4.60;;
75554;SDS011;66087;53.126;17.960;2023-04-01T07:45:30;12.50;;;6.70;;
75554;SDS011;66087;53.126;17.960;2023-04-01T07:48:28;11.20;;;5.50;;
75554;SDS011;66087;53.126;17.960;2023-04-01T07:51:10;12.80;;;7.60;;
75554;SDS011;66087;53.126;17.960;2023-04-01T07:53:49;12.40;;;6.70;;
75554;SDS011;66087;53.126;17.960;2023-04-01T08:05:14;15.40;;;7.60;;
75554;SDS011;66087;53.126;17.960;2023-04-01T08:07:58;10.40;;;5.50;;
75554;SDS011;66087;53.126;17.960;2023-04-01T08:10:49;13.20;;;6.80;;
75554;SDS011;66087;53.126;17.960;2023-04-01T08:13:41;8.80;;;4.40;;
75554;SDS011;66087;53.126;17.960;2023-04-01T08:16:37;11.00;;;5.60;;
75554;SDS011;66087;53.126;17.960;2023-04-01T08:19:28;12.60;;;6.40;;
75554;SDS011;66087;53.126;17.960;2023-04-01T08:22:10;11.70;;;5.80;;
75554;SDS011;66087;53.126;17.960;2023-04-01T08:24:46;8.70;;;4.20;;
75554;SDS011;66087;53.126;17.960;2023-04-01T08:30:06;10.00;;;5.00;;
75554;SDS011;66087;53.126;17.960;2023-04-01T08:32:47;11.00;;;5.70;;
75554;SDS011;66087;53.126;17.960;2023-04-01T08:35:28;10.00;;;5.00;;
75554;SDS011;66087;53.126;17.960;2023-04-01T08:38:01;9.70;;;5.00;;
75554;SDS011;66087;53.126;17.960;2023-04-01T08:40:40;9.80;;;5.40;;
75554;SDS011;66087;53.126;17.960;2023-04-01T08:46:32;7.30;;;3.50;;
75554;SDS011;66087;53.126;17.960;2023-04-01T08:49:16;9.10;;;4.20;;
75554;SDS011;66087;53.126;17.960;2023-04-01T08:52:07;7.50;;;3.50;;
75554;SDS011;66087;53.126;17.960;2023-04-01T08:58:00;6.80;;;3.40;;
75554;SDS011;66087;53.126;17.960;2023-04-01T09:00:54;8.60;;;3.80;;
75554;SDS011;66087;53.126;17.960;2023-04-01T09:06:49;6.90;;;3.20;;
75554;SDS011;66087;53.126;17.960;2023-04-01T09:12:32;6.30;;;2.40;;
75554;SDS011;66087;53.126;17.960;2023-04-01T09:18:20;6.20;;;2.70;;
75554;SDS011;66087;53.126;17.960;2023-04-01T09:24:05;6.30;;;3.00;;
75554;SDS011;66087;53.126;17.960;2023-04-01T09:27:05;6.00;;;2.80;;
75554;SDS011;66087;53.126;17.960;2023-04-01T09:29:49;5.50;;;2.60;;
75554;SDS011;66087;53.126;17.960;2023-04-01T09:35:33;6.10;;;2.60;;
75554;SDS011;66087;53.126;17.960;2023-04-01T09:38:20;5.20;;;2.40;;
75554;SDS011;66087;53.126;17.960;2023-04-01T09:40:57;5.50;;;2.00;;
75554;SDS011;66087;53.126;17.960;2023-04-01T09:43:58;4.90;;;2.00;;
75554;SDS011;66087;53.126;17.960;2023-04-01T09:52:08;4.90;;;2.20;;
75554;SDS011;66087;53.126;17.960;2023-04-01T09:54:53;5.30;;;2.50;;
75554;SDS011;66087;53.126;17.960;2023-04-01T10:09:27;3.90;;;1.60;;
75554;SDS011;66087;53.126;17.960;2023-04-01T10:14:59;3.50;;;1.60;;
75554;SDS011;66087;53.126;17.960;2023-04-01T10:17:56;4.60;;;2.30;;
75554;SDS011;66087;53.126;17.960;2023-04-01T10:20:55;4.90;;;2.00;;
75554;SDS011;66087;53.126;17.960;2023-04-01T10:23:47;3.80;;;1.40;;
75554;SDS011;66087;53.126;17.960;2023-04-01T10:26:38;4.60;;;2.10;;
75554;SDS011;66087;53.126;17.960;2023-04-01T10:32:38;4.20;;;1.60;;
75554;SDS011;66087;53.126;17.960;2023-04-01T10:41:25;3.40;;;1.00;;
75554;SDS011;66087;53.126;17.960;2023-04-01T10:44:25;3.60;;;1.70;;
75554;SDS011;66087;53.126;17.960;2023-04-01T10:47:26;3.30;;;1.40;;
75554;SDS011;66087;53.126;17.960;2023-04-01T10:50:14;3.70;;;1.50;;
75554;SDS011;66087;53.126;17.960;2023-04-01T10:56:15;3.90;;;1.80;;
75554;SDS011;66087;53.126;17.960;2023-04-01T11:08:28;4.30;;;1.80;;
75554;SDS011;66087;53.126;17.960;2023-04-01T11:11:20;4.90;;;2.10;;
75554;SDS011;66087;53.126;17.960;2023-04-01T11:14:17;4.70;;;2.20;;
75554;SDS011;66087;53.126;17.960;2023-04-01T11:17:21;6.20;;;2.60;;
75554;SDS011;66087;53.126;17.960;2023-04-01T11:20:15;6.20;;;2.40;;
75554;SDS011;66087;53.126;17.960;2023-04-01T11:34:27;5.60;;;2.50;;
75554;SDS011;66087;53.126;17.960;2023-04-01T11:37:11;7.00;;;3.20;;
75554;SDS011;66087;53.126;17.960;2023-04-01T11:40:14;6.70;;;3.70;;
75554;SDS011;66087;53.126;17.960;2023-04-01T11:43:16;5.70;;;2.70;;
75554;SDS011;66087;53.126;17.960;2023-04-01T11:46:16;6.90;;;3.10;;
75554;SDS011;66087;53.126;17.960;2023-04-01T11:48:55;7.90;;;3.80;;
75554;SDS011;66087;53.126;17.960;2023-04-01T11:51:55;8.30;;;3.60;;
75554;SDS011;66087;53.126;17.960;2023-04-01T12:03:10;8.50;;;3.60;;
75554;SDS011;66087;53.126;17.960;2023-04-01T12:05:52;8.10;;;3.20;;
75554;SDS011;66087;53.126;17.960;2023-04-01T12:08:31;6.90;;;3.00;;
75554;SDS011;66087;53.126;17.960;2023-04-01T12:11:24;5.80;;;2.80;;
75554;SDS011;66087;53.126;17.960;2023-04-01T12:19:45;5.40;;;2.30;;
75554;SDS011;66087;53.126;17.960;2023-04-01T12:45:35;4.50;;;2.30;;
75554;SDS011;66087;53.126;17.960;2023-04-01T12:48:17;4.80;;;2.50;;
75554;SDS011;66087;53.126;17.960;2023-04-01T12:51:07;4.90;;;2.10;;
75554;SDS011;66087;53.126;17.960;2023-04-01T12:59:54;5.10;;;2.00;;
75554;SDS011;66087;53.126;17.960;2023-04-01T13:05:42;4.60;;;2.50;;
75554;SDS011;66087;53.126;17.960;2023-04-01T13:08:32;6.90;;;2.80;;
75554;SDS011;66087;53.126;17.960;2023-04-01T13:11:18;5.00;;;2.40;;
75554;SDS011;66087;53.126;17.960;2023-04-01T13:14:08;4.10;;;1.90;;
75554;SDS011;66087;53.126;17.960;2023-04-01T13:16:54;4.00;;;2.00;;
75554;SDS011;66087;53.126;17.960;2023-04-01T13:19:31;5.30;;;2.40;;
75554;SDS011;66087;53.126;17.960;2023-04-01T13:22:09;4.70;;;2.20;;
75554;SDS011;66087;53.126;17.960;2023-04-01T13:24:51;5.10;;;1.90;;
75554;SDS011;66087;53.126;17.960;2023-04-01T13:27:34;4.80;;;2.30;;
75554;SDS011;66087;53.126;17.960;2023-04-01T13:30:18;4.60;;;1.90;;
75554;SDS011;66087;53.126;17.960;2023-04-01T13:33:00;5.00;;;2.10;;
75554;SDS011;66087;53.126;17.960;2023-04-01T13:35:44;4.50;;;1.90;;
75554;SDS011;66087;53.126;17.960;2023-04-01T13:38:31;6.30;;;1.90;;
75554;SDS011;66087;53.126;17.960;2023-04-01T13:41:23;4.90;;;2.10;;
75554;SDS011;66087;53.126;17.960;2023-04-01T13:44:15;5.90;;;2.70;;
75554;SDS011;66087;53.126;17.960;2023-04-01T13:47:01;5.50;;;1.90;;
75554;SDS011;66087;53.126;17.960;2023-04-01T13:52:46;9.10;;;3.70;;
75554;SDS011;66087;53.126;17.960;2023-04-01T13:55:28;5.60;;;2.30;;
75554;SDS011;66087;53.126;17.960;2023-04-01T13:58:05;4.80;;;1.70;;
75554;SDS011;66087;53.126;17.960;2023-04-01T14:00:54;3.90;;;1.70;;
75554;SDS011;66087;53.126;17.960;2023-04-01T14:03:32;5.50;;;2.60;;
75554;SDS011;66087;53.126;17.960;2023-04-01T14:06:23;3.90;;;1.90;;
75554;SDS011;66087;53.126;17.960;2023-04-01T14:09:35;3.50;;;1.50;;
75554;SDS011;66087;53.126;17.960;2023-04-01T14:12:02;5.10;;;2.50;;
75554;SDS011;66087;53.126;17.960;2023-04-01T14:14:42;5.60;;;2.50;;
75554;SDS011;66087;53.126;17.960;2023-04-01T14:20:22;5.60;;;2.90;;
75554;SDS011;66087;53.126;17.960;2023-04-01T14:23:05;5.70;;;2.60;;
75554;SDS011;66087;53.126;17.960;2023-04-01T14:34:37;9.40;;;3.50;;
75554;SDS011;66087;53.126;17.960;2023-04-01T14:37:23;10.10;;;3.70;;
75554;SDS011;66087;53.126;17.960;2023-04-01T14:40:14;6.90;;;3.30;;
75554;SDS011;66087;53.126;17.960;2023-04-01T14:42:55;7.40;;;3.30;;
75554;SDS011;66087;53.126;17.960;2023-04-01T14:45:40;7.10;;;3.30;;
75554;SDS011;66087;53.126;17.960;2023-04-01T14:50:57;6.60;;;3.40;;
75554;SDS011;66087;53.126;17.960;2023-04-01T14:53:36;5.60;;;3.00;;
75554;SDS011;66087;53.126;17.960;2023-04-01T14:56:10;6.10;;;2.80;;
75554;SDS011;66087;53.126;17.960;2023-04-01T14:58:42;7.80;;;3.70;;
75554;SDS011;66087;53.126;17.960;2023-04-01T15:01:34;8.40;;;3.20;;
75554;SDS011;66087;53.126;17.960;2023-04-01T15:04:14;7.50;;;3.20;;
75554;SDS011;66087;53.126;17.960;2023-04-01T15:07:05;6.20;;;2.60;;
75554;SDS011;66087;53.126;17.960;2023-04-01T15:12:38;6.50;;;3.10;;
75554;SDS011;66087;53.126;17.960;2023-04-01T15:23:51;8.50;;;3.80;;
75554;SDS011;66087;53.126;17.960;2023-04-01T15:26:29;7.90;;;3.60;;
75554;SDS011;66087;53.126;17.960;2023-04-01T15:29:20;8.90;;;3.50;;
75554;SDS011;66087;53.126;17.960;2023-04-01T15:32:07;4.80;;;2.10;;
75554;SDS011;66087;53.126;17.960;2023-04-01T15:34:53;5.20;;;2.50;;
75554;SDS011;66087;53.126;17.960;2023-04-01T15:40:20;4.90;;;2.10;;
75554;SDS011;66087;53.126;17.960;2023-04-01T15:42:55;8.60;;;3.00;;
75554;SDS011;66087;53.126;17.960;2023-04-01T15:45:40;5.20;;;2.10;;
75554;SDS011;66087;53.126;17.960;2023-04-01T15:48:20;4.20;;;2.10;;
75554;SDS011;66087;53.126;17.960;2023-04-01T15:53:46;5.60;;;2.40;;
75554;SDS011;66087;53.126;17.960;2023-04-01T15:56:24;4.90;;;2.20;;
75554;SDS011;66087;53.126;17.960;2023-04-01T16:01:44;6.30;;;2.40;;
75554;SDS011;66087;53.126;17.960;2023-04-01T16:07:21;4.30;;;1.60;;
75554;SDS011;66087;53.126;17.960;2023-04-01T16:10:04;4.80;;;2.10;;
75554;SDS011;66087;53.126;17.960;2023-04-01T16:15:36;7.00;;;2.70;;
75554;SDS011;66087;53.126;17.960;2023-04-01T16:21:08;5.80;;;2.50;;
75554;SDS011;66087;53.126;17.960;2023-04-01T16:23:48;6.70;;;3.10;;
75554;SDS011;66087;53.126;17.960;2023-04-01T16:26:31;6.80;;;2.30;;
75554;SDS011;66087;53.126;17.960;2023-04-01T16:29:17;5.70;;;2.60;;
75554;SDS011;66087;53.126;17.960;2023-04-01T16:32:14;5.10;;;2.30;;
75554;SDS011;66087;53.126;17.960;2023-04-01T16:35:05;4.10;;;1.70;;
75554;SDS011;66087;53.126;17.960;2023-04-01T16:37:51;5.40;;;2.10;;
75554;SDS011;66087;53.126;17.960;2023-04-01T16:40:43;6.80;;;2.80;;
75554;SDS011;66087;53.126;17.960;2023-04-01T16:43:28;8.30;;;3.90;;
75554;SDS011;66087;53.126;17.960;2023-04-01T16:49:18;11.00;;;4.50;;
75554;SDS011;66087;53.126;17.960;2023-04-01T16:51:52;6.80;;;2.70;;
75554;SDS011;66087;53.126;17.960;2023-04-01T16:54:28;4.20;;;1.80;;
75554;SDS011;66087;53.126;17.960;2023-04-01T16:57:04;5.00;;;1.90;;
75554;SDS011;66087;53.126;17.960;2023-04-01T17:02:37;3.80;;;1.50;;
75554;SDS011;66087;53.126;17.960;2023-04-01T17:05:11;4.50;;;1.50;;
75554;SDS011;66087;53.126;17.960;2023-04-01T17:10:42;4.70;;;1.70;;
75554;SDS011;66087;53.126;17.960;2023-04-01T17:13:29;5.10;;;1.80;;
75554;SDS011;66087;53.126;17.960;2023-04-01T17:16:13;3.90;;;1.60;;
75554;SDS011;66087;53.126;17.960;2023-04-01T17:19:01;4.40;;;1.50;;
75554;SDS011;66087;53.126;17.960;2023-04-01T17:24:31;4.40;;;1.70;;
75554;SDS011;66087;53.126;17.960;2023-04-01T17:30:12;3.70;;;1.60;;
75554;SDS011;66087;53.126;17.960;2023-04-01T17:33:02;3.50;;;1.20;;
75554;SDS011;66087;53.126;17.960;2023-04-01T17:35:53;5.00;;;1.60;;
75554;SDS011;66087;53.126;17.960;2023-04-01T17:49:42;4.30;;;1.70;;
75554;SDS011;66087;53.126;17.960;2023-04-01T17:52:28;3.70;;;1.80;;
75554;SDS011;66087;53.126;17.960;2023-04-01T17:57:56;4.40;;;1.90;;
75554;SDS011;66087;53.126;17.960;2023-04-01T18:00:50;3.50;;;1.20;;
75554;SDS011;66087;53.126;17.960;2023-04-01T18:09:11;3.10;;;1.00;;
75554;SDS011;66087;53.126;17.960;2023-04-01T18:14:49;5.20;;;2.10;;
75554;SDS011;66087;53.126;17.960;2023-04-01T18:17:38;4.20;;;2.20;;
75554;SDS011;66087;53.126;17.960;2023-04-01T18:23:04;4.30;;;1.80;;
75554;SDS011;66087;53.126;17.960;2023-04-01T18:25:54;2.50;;;1.80;;
75554;SDS011;66087;53.126;17.960;2023-04-01T18:28:41;4.90;;;1.90;;
75554;SDS011;66087;53.126;17.960;2023-04-01T18:31:16;5.30;;;2.10;;
75554;SDS011;66087;53.126;17.960;2023-04-01T18:33:48;6.60;;;2.50;;
75554;SDS011;66087;53.126;17.960;2023-04-01T18:36:26;5.50;;;2.10;;
75554;SDS011;66087;53.126;17.960;2023-04-01T18:39:10;5.20;;;2.30;;
75554;SDS011;66087;53.126;17.960;2023-04-01T18:44:45;6.70;;;2.70;;
75554;SDS011;66087;53.126;17.960;2023-04-01T18:52:58;7.00;;;2.50;;
75554;SDS011;66087;53.126;17.960;2023-04-01T18:55:40;5.30;;;2.10;;
75554;SDS011;66087;53.126;17.960;2023-04-01T18:58:19;6.80;;;3.00;;
75554;SDS011;66087;53.126;17.960;2023-04-01T19:03:37;6.00;;;3.20;;
75554;SDS011;66087;53.126;17.960;2023-04-01T19:06:22;8.60;;;3.30;;
75554;SDS011;66087;53.126;17.960;2023-04-01T19:08:54;4.70;;;2.00;;
75554;SDS011;66087;53.126;17.960;2023-04-01T19:11:28;7.80;;;3.20;;
75554;SDS011;66087;53.126;17.960;2023-04-01T19:14:19;8.50;;;3.40;;
75554;SDS011;66087;53.126;17.960;2023-04-01T19:17:02;9.20;;;4.30;;
75554;SDS011;66087;53.126;17.960;2023-04-01T19:19:42;8.20;;;3.30;;
75554;SDS011;66087;53.126;17.960;2023-04-01T19:25:23;8.00;;;3.70;;
75554;SDS011;66087;53.126;17.960;2023-04-01T19:30:51;6.90;;;2.90;;
75554;SDS011;66087;53.126;17.960;2023-04-01T19:36:22;6.10;;;2.70;;
75554;SDS011;66087;53.126;17.960;2023-04-01T19:44:51;8.70;;;3.00;;
75554;SDS011;66087;53.126;17.960;2023-04-01T19:47:47;9.80;;;3.50;;
75554;SDS011;66087;53.126;17.960;2023-04-01T19:50:30;6.00;;;2.60;;
75554;SDS011;66087;53.126;17.960;2023-04-01T19:53:07;7.80;;;3.30;;
75554;SDS011;66087;53.126;17.960;2023-04-01T19:55:48;8.60;;;3.50;;
75554;SDS011;66087;53.126;17.960;2023-04-01T19:58:29;6.80;;;3.00;;
75554;SDS011;66087;53.126;17.960;2023-04-01T20:01:03;8.20;;;4.10;;
75554;SDS011;66087;53.126;17.960;2023-04-01T20:03:34;10.10;;;4.70;;